createdAt,value
2023-10-13T00:00:38.087Z,27.10
2023-10-13T00:03:16.525Z,23.90
2023-10-13T00:05:47.370Z,25.10
2023-10-13T00:10:51.794Z,31.92
2023-10-13T00:13:22.783Z,32.97
2023-10-13T00:15:59.099Z,35.58
2023-10-13T00:18:34.651Z,29.77
2023-10-13T00:21:13.987Z,34.88
2023-10-13T00:23:54.054Z,31.05
2023-10-13T00:26:29.244Z,43.58
2023-10-13T00:29:18.197Z,39.83
2023-10-13T00:31:50.047Z,35.47
2023-10-13T00:34:26.802Z,31.88
2023-10-13T00:37:09.263Z,37.20
2023-10-13T00:39:41.971Z,40.67
2023-10-13T00:42:19.581Z,37.17
2023-10-13T00:44:50.207Z,41.22
2023-10-13T00:47:38.343Z,42.38
2023-10-13T00:50:06.978Z,39.25
2023-10-13T00:53:01.051Z,40.00
2023-10-13T00:55:28.524Z,39.85
2023-10-13T00:58:04.692Z,37.50
2023-10-13T01:00:32.327Z,37.47
2023-10-13T01:03:08.776Z,50.95
2023-10-13T01:05:39.320Z,43.50
2023-10-13T01:08:13.379Z,46.58
2023-10-13T01:10:43.096Z,45.95
2023-10-13T01:13:21.901Z,41.47
2023-10-13T01:15:49.740Z,49.17
2023-10-13T01:18:21.818Z,46.17
2023-10-13T01:20:53.701Z,52.15
2023-10-13T01:23:29.845Z,46.88
2023-10-13T01:25:57.784Z,50.15
2023-10-13T01:28:27.784Z,51.92
2023-10-13T01:30:55.074Z,42.63
2023-10-13T01:33:28.480Z,46.70
2023-10-13T01:35:59.963Z,46.38
2023-10-13T01:38:34.891Z,50.28
2023-10-13T01:41:06.037Z,42.40
2023-10-13T01:43:36.209Z,50.17
2023-10-13T01:46:05.003Z,45.33
2023-10-13T01:48:40.278Z,43.15
2023-10-13T01:51:11.176Z,46.85
2023-10-13T01:53:45.148Z,51.22
2023-10-13T01:56:12.594Z,46.50
2023-10-13T01:58:49.086Z,43.28
2023-10-13T02:01:27.918Z,42.25
2023-10-13T02:04:05.643Z,42.97
2023-10-13T02:06:34.026Z,48.20
2023-10-13T02:09:27.018Z,41.55
2023-10-13T02:11:55.793Z,50.15
2023-10-13T02:14:27.080Z,51.92
2023-10-13T02:17:12.984Z,46.15
2023-10-13T02:19:45.255Z,54.78
2023-10-13T02:22:13.560Z,49.63
2023-10-13T02:24:46.684Z,52.58
2023-10-13T02:27:15.217Z,48.17
2023-10-13T02:29:47.554Z,56.83
2023-10-13T02:35:09.051Z,44.10
2023-10-13T02:38:33.101Z,34.13
2023-10-13T02:41:30.178Z,31.77
2023-10-13T02:44:13.285Z,28.55
2023-10-13T02:46:41.573Z,31.40
2023-10-13T02:49:44.239Z,31.90
2023-10-13T02:52:39.434Z,35.30
2023-10-13T02:55:10.913Z,37.63
2023-10-13T02:57:43.343Z,35.60
2023-10-13T03:00:13.896Z,36.45
2023-10-13T03:05:15.009Z,36.05
2023-10-13T03:07:46.003Z,34.92
2023-10-13T03:10:13.239Z,39.80
2023-10-13T03:12:49.625Z,36.88
2023-10-13T03:15:19.440Z,36.42
2023-10-13T03:17:50.088Z,41.13
2023-10-13T03:20:23.904Z,48.30
2023-10-13T03:22:56.921Z,53.78
2023-10-13T03:25:25.810Z,57.22
2023-10-13T03:28:06.447Z,62.92
2023-10-13T03:30:39.890Z,56.05
2023-10-13T03:33:13.168Z,58.13
2023-10-13T03:35:44.625Z,66.20
2023-10-13T03:38:28.615Z,67.20
2023-10-13T03:41:08.673Z,73.03
2023-10-13T03:43:53.221Z,70.47
2023-10-13T03:46:23.805Z,65.10
2023-10-13T03:49:00.817Z,71.15
2023-10-13T03:51:35.085Z,73.20
2023-10-13T03:54:09.414Z,70.45
2023-10-13T03:56:42.945Z,70.85
2023-10-13T03:59:22.138Z,70.82
2023-10-13T04:02:00.046Z,81.03
2023-10-13T04:04:50.134Z,72.90
2023-10-13T04:07:32.300Z,74.60
2023-10-13T04:10:14.349Z,76.43
2023-10-13T04:12:56.653Z,72.88
2023-10-13T04:15:38.225Z,72.05
2023-10-13T04:18:30.236Z,75.68
2023-10-13T04:21:20.160Z,75.22
2023-10-13T04:24:02.589Z,80.05
2023-10-13T04:26:44.148Z,69.07
2023-10-13T04:29:28.906Z,72.97
2023-10-13T04:32:14.850Z,80.68
2023-10-13T04:34:47.099Z,72.93
2023-10-13T04:37:30.580Z,70.20
2023-10-13T04:40:01.294Z,69.03
2023-10-13T04:42:51.016Z,66.65
2023-10-13T04:45:45.675Z,69.28
2023-10-13T04:48:19.404Z,67.00
2023-10-13T04:50:51.797Z,61.97
2023-10-13T04:53:31.073Z,64.05
2023-10-13T04:56:31.825Z,63.00
2023-10-13T04:59:14.016Z,60.13
2023-10-13T05:02:14.035Z,60.20
2023-10-13T05:05:00.433Z,57.53
2023-10-13T05:07:42.893Z,65.43
2023-10-13T05:10:25.400Z,65.72
2023-10-13T05:13:07.745Z,69.20
2023-10-13T05:15:49.966Z,70.38
2023-10-13T05:18:32.190Z,74.75
2023-10-13T05:21:17.037Z,75.03
2023-10-13T05:26:59.942Z,70.00
2023-10-13T05:29:42.239Z,72.35
2023-10-13T05:32:24.620Z,65.15
2023-10-13T05:35:06.906Z,55.90
2023-10-13T05:37:51.804Z,58.78
2023-10-13T05:40:34.181Z,61.55
2023-10-13T05:43:16.461Z,66.35
2023-10-13T05:45:58.607Z,67.72
2023-10-13T05:48:43.204Z,67.75
2023-10-13T05:51:25.541Z,66.10
2023-10-13T05:54:10.375Z,66.95
2023-10-13T05:56:52.688Z,67.93
2023-10-13T05:59:35.003Z,67.32
2023-10-13T06:02:17.301Z,72.35
2023-10-13T06:04:59.836Z,66.85
2023-10-13T06:07:42.365Z,65.25
2023-10-13T06:10:27.328Z,65.93
2023-10-13T06:13:09.611Z,66.65
2023-10-13T06:15:52.845Z,70.07
2023-10-13T06:18:35.052Z,64.80
2023-10-13T06:21:17.856Z,66.70
2023-10-13T06:24:00.101Z,69.28
2023-10-13T06:26:45.057Z,73.80
2023-10-13T06:29:21.851Z,69.93
2023-10-13T06:31:52.176Z,66.55
2023-10-13T06:34:29.530Z,67.07
2023-10-13T06:36:59.829Z,72.45
2023-10-13T06:39:42.775Z,66.80
2023-10-13T06:44:46.947Z,67.82
2023-10-13T06:47:16.887Z,64.90
2023-10-13T06:49:47.213Z,63.00
2023-10-13T06:52:17.445Z,66.88
2023-10-13T06:54:47.689Z,69.05
2023-10-13T06:57:21.804Z,67.55
2023-10-13T06:59:54.582Z,65.90
2023-10-13T07:02:28.762Z,63.88
2023-10-13T07:05:09.430Z,58.92
2023-10-13T07:07:40.309Z,65.57
2023-10-13T07:10:13.139Z,53.38
2023-10-13T07:12:45.829Z,52.05
2023-10-13T07:15:20.907Z,54.13
2023-10-13T07:17:56.264Z,52.25
2023-10-13T07:20:35.160Z,52.10
2023-10-13T07:23:07.644Z,45.15
2023-10-13T07:25:38.905Z,42.75
2023-10-13T07:28:12.135Z,46.60
2023-10-13T07:30:50.898Z,39.33
2023-10-13T07:33:21.532Z,39.08
2023-10-13T07:35:53.341Z,39.90
2023-10-13T07:38:23.737Z,37.92
2023-10-13T07:40:54.971Z,43.70
2023-10-13T07:43:28.836Z,38.05
2023-10-13T07:46:00.105Z,41.20
2023-10-13T07:48:29.961Z,39.88
2023-10-13T07:51:05.132Z,44.45
2023-10-13T07:53:41.381Z,49.80
2023-10-13T07:56:13.229Z,42.90
2023-10-13T07:58:54.244Z,38.83
2023-10-13T08:01:24.255Z,36.97
2023-10-13T08:04:06.080Z,35.67
2023-10-13T08:06:38.035Z,35.55
2023-10-13T08:09:30.088Z,33.85
2023-10-13T08:12:01.335Z,32.97
2023-10-13T08:14:38.905Z,32.75
2023-10-13T08:17:13.876Z,30.05
2023-10-13T08:19:46.249Z,27.75
2023-10-13T08:22:37.498Z,24.33
2023-10-13T08:25:26.500Z,27.70
2023-10-13T08:28:11.360Z,28.40
2023-10-13T08:30:53.825Z,24.83
2023-10-13T08:33:27.505Z,23.33
2023-10-13T08:36:19.725Z,24.20
2023-10-13T08:38:56.735Z,22.92
2023-10-13T08:41:30.857Z,22.08
2023-10-13T08:44:07.559Z,24.15
2023-10-13T08:49:24.850Z,22.30
2023-10-13T08:52:06.872Z,17.88
2023-10-13T08:54:35.732Z,21.52
2023-10-13T08:57:19.136Z,17.30
2023-10-13T08:59:54.274Z,15.82
2023-10-13T09:02:52.320Z,28.17
2023-10-13T09:05:34.746Z,16.05
2023-10-13T09:08:11.145Z,16.77
2023-10-13T09:13:22.421Z,19.20
2023-10-13T09:16:04.796Z,13.27
2023-10-13T09:18:49.709Z,16.13
2023-10-13T09:21:32.332Z,15.27
2023-10-13T09:24:14.318Z,15.80
2023-10-13T09:26:44.280Z,14.75
2023-10-13T09:29:23.568Z,11.95
2023-10-13T09:32:01.588Z,15.48
2023-10-13T09:34:36.242Z,16.30
2023-10-13T09:37:05.501Z,12.88
2023-10-13T09:39:46.359Z,14.57
2023-10-13T09:42:17.568Z,13.52
2023-10-13T09:44:52.925Z,18.20
2023-10-13T09:47:32.486Z,13.07
2023-10-13T09:50:15.550Z,13.10
2023-10-13T09:55:19.852Z,15.52
2023-10-13T09:57:58.933Z,13.77
2023-10-13T10:00:47.669Z,14.23
2023-10-13T10:03:33.080Z,13.27
2023-10-13T10:06:17.128Z,12.38
2023-10-13T10:08:49.866Z,17.95
2023-10-13T10:11:32.408Z,14.15
2023-10-13T10:14:10.166Z,16.55
2023-10-13T10:16:55.923Z,18.45
2023-10-13T10:19:25.892Z,16.98
2023-10-13T10:22:06.622Z,16.23
2023-10-13T10:24:37.978Z,17.23
2023-10-13T10:27:08.169Z,14.43
2023-10-13T10:29:38.008Z,17.55
2023-10-13T10:32:17.099Z,19.02
2023-10-13T10:34:47.003Z,15.60
2023-10-13T10:37:19.873Z,20.60
2023-10-13T10:39:51.218Z,18.10
2023-10-13T10:42:24.897Z,14.63
2023-10-13T10:45:06.629Z,15.70
2023-10-13T10:47:38.681Z,25.20
2023-10-13T10:50:20.806Z,16.88
2023-10-13T10:52:58.865Z,20.65
2023-10-13T10:55:30.576Z,15.20
2023-10-13T10:58:07.120Z,14.30
2023-10-13T11:03:18.717Z,18.58
2023-10-13T11:05:50.241Z,13.52
2023-10-13T11:08:32.884Z,15.68
2023-10-13T11:11:06.786Z,14.27
2023-10-13T11:13:52.472Z,15.15
2023-10-13T11:16:35.758Z,15.00
2023-10-13T11:19:06.702Z,16.15
2023-10-13T11:21:38.954Z,19.08
2023-10-13T11:24:13.128Z,18.63
2023-10-13T11:26:50.881Z,12.93
2023-10-13T11:29:23.867Z,17.17
2023-10-13T11:31:59.932Z,21.15
2023-10-13T11:34:41.448Z,14.15
2023-10-13T11:37:24.002Z,20.42
2023-10-13T11:39:58.789Z,14.93
2023-10-13T11:42:30.099Z,17.48
2023-10-13T11:45:18.185Z,20.15
2023-10-13T11:48:00.503Z,16.42
2023-10-13T11:50:36.966Z,11.43
2023-10-13T11:53:09.634Z,14.40
2023-10-13T11:55:42.498Z,15.90
2023-10-13T11:58:18.800Z,19.13
2023-10-13T12:01:03.958Z,11.80
2023-10-13T12:03:46.376Z,14.57
2023-10-13T12:06:34.604Z,14.07
2023-10-13T12:09:30.671Z,18.38
2023-10-13T12:12:05.803Z,12.15
2023-10-13T12:14:39.196Z,12.90
2023-10-13T12:17:12.241Z,12.82
2023-10-13T12:19:52.523Z,32.95
2023-10-13T12:22:28.371Z,13.38
2023-10-13T12:24:58.707Z,18.38
2023-10-13T12:30:23.795Z,14.48
2023-10-13T12:33:07.832Z,12.18
2023-10-13T12:35:46.731Z,18.67
2023-10-13T12:38:38.724Z,12.30
2023-10-13T12:41:34.580Z,19.63
2023-10-13T12:44:24.871Z,14.63
2023-10-13T12:50:27.533Z,14.20
2023-10-13T12:53:05.728Z,18.42
2023-10-13T12:55:54.869Z,16.63
2023-10-13T12:58:29.734Z,12.90
2023-10-13T13:01:13.222Z,14.13
2023-10-13T13:03:46.796Z,14.15
2023-10-13T13:09:10.852Z,18.88
2023-10-13T13:11:41.381Z,14.00
2023-10-13T13:14:13.399Z,12.65
2023-10-13T13:16:54.373Z,14.43
2023-10-13T13:22:28.186Z,14.27
2023-10-13T13:24:58.796Z,15.55
2023-10-13T13:27:39.493Z,21.27
2023-10-13T13:30:23.715Z,21.42
2023-10-13T13:33:08.528Z,20.92
2023-10-13T13:35:42.124Z,17.42
2023-10-13T13:38:28.379Z,14.68
2023-10-13T13:41:00.605Z,19.35
2023-10-13T13:43:58.014Z,15.45
2023-10-13T13:46:34.602Z,17.05
2023-10-13T13:49:08.795Z,16.25
2023-10-13T13:51:39.429Z,21.27
2023-10-13T13:54:10.484Z,16.40
2023-10-13T13:56:42.236Z,17.45
2023-10-13T13:59:19.978Z,15.38
2023-10-13T14:01:50.625Z,17.38
2023-10-13T14:07:37.653Z,17.13
2023-10-13T14:10:20.209Z,13.38
2023-10-13T14:13:14.718Z,22.10
2023-10-13T14:15:45.379Z,18.85
2023-10-13T14:18:30.165Z,14.52
2023-10-13T14:21:25.830Z,17.20
2023-10-13T14:24:02.004Z,16.45
2023-10-13T14:26:32.803Z,16.80
2023-10-13T14:29:07.099Z,15.45
2023-10-13T14:31:38.436Z,21.63
2023-10-13T14:34:08.699Z,22.40
2023-10-13T14:36:41.366Z,18.52
2023-10-13T14:39:12.889Z,17.80
2023-10-13T14:41:51.878Z,15.25
2023-10-13T14:44:26.432Z,22.77
2023-10-13T14:46:56.968Z,16.45
2023-10-13T14:49:44.527Z,22.35
2023-10-13T14:52:20.316Z,16.70
2023-10-13T14:54:56.544Z,18.13
2023-10-13T14:57:28.706Z,16.13
2023-10-13T14:59:59.744Z,18.83
2023-10-13T15:02:29.689Z,19.33
2023-10-13T15:05:04.084Z,17.80
2023-10-13T15:07:38.066Z,22.67
2023-10-13T15:10:16.142Z,18.08
2023-10-13T15:19:21.871Z,22.80
2023-10-13T15:21:58.032Z,19.00
2023-10-13T15:24:46.782Z,15.63
2023-10-13T15:30:21.413Z,22.90
2023-10-13T15:32:55.382Z,18.27
2023-10-13T15:35:34.895Z,26.02
2023-10-13T15:38:14.073Z,12.40
2023-10-13T15:40:57.960Z,13.55
2023-10-13T15:43:54.115Z,22.48
2023-10-13T15:48:04.022Z,21.27
2023-10-13T15:49:58.666Z,13.90
2023-10-13T15:52:33.184Z,15.68
2023-10-13T15:55:23.218Z,18.95
2023-10-13T15:58:12.899Z,17.70
2023-10-13T16:01:14.812Z,24.48
2023-10-13T16:04:02.516Z,19.35
2023-10-13T16:06:43.912Z,14.80
2023-10-13T16:12:29.054Z,22.15
2023-10-13T16:15:42.137Z,17.50
2023-10-13T16:18:35.660Z,20.90
2023-10-13T16:21:26.278Z,13.02
2023-10-13T16:24:37.657Z,12.18
2023-10-13T16:27:27.788Z,18.35
2023-10-13T16:30:39.931Z,15.75
2023-10-13T16:36:23.694Z,12.65
2023-10-13T16:39:10.660Z,9.88
2023-10-13T16:41:54.382Z,13.50
2023-10-13T16:44:29.207Z,14.45
2023-10-13T16:47:21.464Z,20.17
2023-10-13T16:50:30.567Z,10.35
2023-10-13T16:53:11.682Z,14.60
2023-10-13T16:56:18.794Z,15.35
2023-10-13T16:59:09.553Z,15.75
2023-10-13T17:01:39.929Z,11.77
2023-10-13T17:04:38.236Z,16.63
2023-10-13T17:07:53.947Z,20.00
2023-10-13T17:13:42.076Z,15.15
2023-10-13T17:19:55.839Z,16.15
2023-10-13T17:22:57.783Z,16.08
2023-10-13T17:28:59.133Z,18.48
2023-10-13T17:31:57.217Z,14.20
2023-10-13T17:34:59.491Z,15.68
2023-10-13T17:41:25.681Z,12.50
2023-10-13T17:43:57.324Z,17.60
2023-10-13T17:46:27.394Z,18.05
2023-10-13T17:48:58.080Z,17.02
2023-10-13T17:51:31.016Z,16.15
2023-10-13T17:54:01.200Z,16.95
2023-10-13T17:56:32.165Z,10.10
2023-10-13T17:59:02.098Z,11.88
2023-10-13T18:01:33.402Z,12.82
2023-10-13T18:04:06.223Z,10.05
2023-10-13T18:06:39.568Z,11.85
2023-10-13T18:09:12.633Z,12.85
2023-10-13T18:11:44.137Z,18.50
2023-10-13T18:14:17.204Z,16.73
2023-10-13T18:16:50.911Z,13.75
2023-10-13T18:19:22.260Z,9.60
2023-10-13T18:21:56.217Z,11.02
2023-10-13T18:24:28.335Z,10.05
2023-10-13T18:26:58.666Z,17.10
2023-10-13T18:32:00.469Z,12.82
2023-10-13T18:34:30.342Z,7.45
2023-10-13T18:37:03.928Z,6.78
2023-10-13T18:39:37.988Z,9.77
2023-10-13T18:42:08.874Z,12.88
2023-10-13T18:44:39.072Z,13.45
2023-10-13T18:47:09.679Z,13.02
2023-10-13T18:49:40.189Z,11.50
2023-10-13T18:52:12.581Z,12.43
2023-10-13T18:54:42.859Z,13.95
2023-10-13T18:59:45.179Z,17.17
2023-10-13T19:02:15.204Z,14.35
2023-10-13T19:04:45.041Z,14.13
2023-10-13T19:07:17.484Z,12.13
2023-10-13T19:09:48.257Z,21.13
2023-10-13T19:12:23.900Z,13.95
2023-10-13T19:14:54.197Z,20.83
2023-10-13T19:17:24.670Z,15.13
2023-10-13T19:19:54.743Z,16.48
2023-10-13T19:22:27.558Z,34.15
2023-10-13T19:24:58.176Z,24.30
2023-10-13T19:27:28.779Z,17.05
2023-10-13T19:29:59.010Z,14.15
2023-10-13T19:32:29.023Z,15.07
2023-10-13T19:34:58.948Z,16.15
2023-10-13T19:37:31.533Z,17.67
2023-10-13T19:40:01.926Z,20.63
2023-10-13T19:42:32.039Z,17.40
2023-10-13T19:45:04.225Z,19.52
2023-10-13T19:47:34.587Z,23.45
2023-10-13T19:50:04.605Z,18.73
2023-10-13T19:52:37.015Z,15.50
2023-10-13T19:55:07.381Z,15.23
2023-10-13T19:57:37.900Z,23.33
2023-10-13T20:00:10.137Z,20.58
2023-10-13T20:02:43.747Z,18.00
2023-10-13T20:05:18.997Z,27.65
2023-10-13T20:07:51.770Z,22.48
2023-10-13T20:10:22.800Z,17.83
2023-10-13T20:12:53.083Z,19.75
2023-10-13T20:17:52.772Z,17.20
2023-10-13T20:20:28.240Z,18.80
2023-10-13T20:23:01.079Z,16.48
2023-10-13T20:25:30.967Z,12.60
2023-10-13T20:28:02.158Z,14.68
2023-10-13T20:30:34.809Z,23.95
2023-10-13T20:33:10.715Z,16.27
2023-10-13T20:35:42.424Z,12.75
2023-10-13T20:38:14.903Z,20.42
2023-10-13T20:40:44.884Z,11.95
2023-10-13T20:43:16.146Z,22.38
2023-10-13T20:45:47.023Z,16.85
2023-10-13T20:48:18.735Z,11.32
2023-10-13T20:50:48.685Z,21.17
2023-10-13T20:53:21.284Z,12.13
2023-10-13T20:56:02.058Z,16.73
2023-10-13T20:58:32.331Z,17.30
2023-10-13T21:01:02.788Z,10.07
2023-10-13T21:03:33.158Z,13.07
2023-10-13T21:06:03.444Z,13.63
2023-10-13T21:08:37.472Z,12.75
2023-10-13T21:11:08.241Z,10.23
2023-10-13T21:13:38.957Z,12.55
2023-10-13T21:16:11.423Z,13.48
2023-10-13T21:18:43.204Z,9.57
2023-10-13T21:21:20.732Z,9.93
2023-10-13T21:23:54.404Z,12.45
2023-10-13T21:26:25.312Z,10.95
2023-10-13T21:28:56.440Z,12.40
2023-10-13T21:31:26.708Z,9.85
2023-10-13T21:33:57.886Z,10.85
2023-10-13T21:36:28.831Z,6.35
2023-10-13T21:39:01.410Z,8.52
2023-10-13T21:41:31.414Z,7.57
2023-10-13T21:44:04.551Z,12.25
2023-10-13T21:46:36.618Z,8.55
2023-10-13T21:49:09.756Z,11.15
2023-10-13T21:51:40.888Z,9.07
2023-10-13T21:54:13.598Z,10.18
2023-10-13T21:56:43.648Z,10.63
2023-10-13T21:59:14.454Z,10.68
2023-10-13T22:01:45.600Z,11.30
2023-10-13T22:04:22.655Z,13.65
2023-10-13T22:06:55.357Z,16.92
2023-10-13T22:09:28.097Z,16.00
2023-10-13T22:11:58.390Z,16.10
2023-10-13T22:14:28.395Z,19.05
2023-10-13T22:16:58.367Z,15.55
2023-10-13T22:19:30.680Z,19.75
2023-10-13T22:22:02.276Z,20.70
2023-10-13T22:24:35.016Z,18.05
2023-10-13T22:27:07.580Z,16.80
2023-10-13T22:29:37.559Z,16.27
2023-10-13T22:32:07.503Z,18.77
2023-10-13T22:34:37.455Z,17.48
2023-10-13T22:37:07.716Z,22.02
2023-10-13T22:39:40.281Z,15.98
2023-10-13T22:42:13.474Z,18.05
2023-10-13T22:44:43.426Z,18.10
2023-10-13T22:47:13.316Z,18.67
2023-10-13T22:49:43.606Z,17.42
2023-10-13T22:52:14.050Z,18.05
2023-10-13T22:54:46.624Z,20.95
2023-10-13T22:57:18.210Z,22.85
2023-10-13T23:40:07.992Z,20.55
2023-10-13T23:43:01.217Z,26.85
2023-10-13T23:45:42.250Z,27.20
2023-10-13T23:51:55.203Z,23.52
2023-10-13T23:54:42.176Z,21.45
2023-10-13T23:57:15.712Z,17.55
2023-10-13T23:59:55.729Z,10.50
